< Cyclone 199903 1999 Season Cyclone 199905 >
Cyclone 199904 (BILLY)
General InformationDetailed Track InformationTrack Information on Google MapsList of All Images || ResourceGoogle EarthGE AnimationAtom FeedGeoJSON
Detalied Best Track Wind (Time Zone = UTC)
Year Month Day Hour Lat. Long. Wind (kt) Gust (kt) Direc. of Major Storm Axis Radius of Major Storm Axis (nm) Radius of Minor Storm Axis (nm) Direc. of Major Gale Axis Radius of Major Gale Axis (nm) Radius of Minor Gale Axis (nm) Image
1998 12 2 04 -15.8 120.0 27 -1 symmetric - - symmetric - - Image
1998 12 2 07 -16.0 119.8 35 -1 symmetric - - symmetric - - Image
1998 12 2 10 -16.2 119.6 35 -1 symmetric - - symmetric - - Image
1998 12 2 13 -16.3 119.5 41 -1 symmetric - - symmetric - - Image
1998 12 2 16 -16.4 119.4 41 -1 symmetric - - symmetric - - Image
1998 12 2 19 -16.5 119.2 49 -1 symmetric - - symmetric - - Image
1998 12 2 22 -16.6 119.0 49 -1 symmetric - - symmetric - - Image
1998 12 3 01 -16.6 118.7 49 -1 symmetric - - symmetric - - Image
1998 12 3 04 -16.7 118.3 49 -1 symmetric - - symmetric - - Image
1998 12 3 07 -16.8 118.0 49 -1 symmetric - - symmetric - - Image
1998 12 3 10 -16.9 117.7 49 -1 symmetric - - symmetric - - Image
1998 12 3 13 -17.0 117.4 54 -1 symmetric - - symmetric - - Image
1998 12 3 16 -17.3 117.2 54 -1 symmetric - - symmetric - - Image
1998 12 3 19 -17.5 117.1 60 -1 symmetric - - symmetric - - Image
1998 12 3 22 -17.7 117.0 64 -1 symmetric - - symmetric - - Image
1998 12 4 01 -17.9 116.9 70 -1 symmetric - - symmetric - - Image
1998 12 4 04 -18.2 116.7 70 -1 symmetric - - symmetric - - Image
1998 12 4 07 -18.4 116.6 64 -1 symmetric - - symmetric - - Image
1998 12 4 10 -18.5 116.5 64 -1 symmetric - - symmetric - - Image
1998 12 4 13 -18.7 116.3 64 -1 symmetric - - symmetric - - Image
1998 12 4 16 -18.8 116.1 60 -1 symmetric - - symmetric - - Image
1998 12 4 19 -18.9 115.9 60 -1 symmetric - - symmetric - - Image
1998 12 4 22 -19.0 115.8 54 -1 symmetric - - symmetric - - Image
1998 12 5 01 -19.1 115.7 54 -1 symmetric - - symmetric - - Image
1998 12 5 04 -19.2 115.6 49 -1 symmetric - - symmetric - - Image
1998 12 5 07 -19.4 115.5 49 -1 symmetric - - symmetric - - Image
1998 12 5 10 -19.7 115.4 41 -1 symmetric - - symmetric - - Image
1998 12 5 13 -20.0 115.3 41 -1 symmetric - - symmetric - - Image
1998 12 5 16 -20.2 115.2 35 -1 symmetric - - symmetric - - Image
1998 12 5 19 -20.4 115.1 35 -1 symmetric - - symmetric - - Image
1998 12 5 22 -20.6 115.0 29 -1 symmetric - - symmetric - - Image
1998 12 6 01 -20.9 115.0 29 -1 symmetric - - symmetric - - Image
1998 12 6 04 -21.2 115.2 27 -1 symmetric - - symmetric - - Image
1998 12 6 07 -21.5 115.4 27 -1 symmetric - - symmetric - - Image
< Cyclone 199903 1999 Season Cyclone 199905 >

Help